createdAt,value
2022-09-21T00:01:43.746Z,11.60
2022-09-21T00:04:51.316Z,11.62
2022-09-21T00:07:57.716Z,11.62
2022-09-21T00:11:06.886Z,11.62
2022-09-21T00:14:17.224Z,11.63
2022-09-21T00:17:23.451Z,11.65
2022-09-21T00:20:31.575Z,11.64
2022-09-21T00:23:37.105Z,11.58
2022-09-21T00:26:43.712Z,11.56
2022-09-21T00:29:48.998Z,11.57
2022-09-21T00:32:55.268Z,11.59
2022-09-21T00:36:01.178Z,11.59
2022-09-21T00:39:12.016Z,11.58
2022-09-21T00:42:19.902Z,11.55
2022-09-21T00:45:31.134Z,11.51
2022-09-21T00:48:36.488Z,11.47
2022-09-21T00:51:42.004Z,11.44
2022-09-21T00:54:55.547Z,11.41
2022-09-21T00:58:06.577Z,11.37
2022-09-21T01:01:12.419Z,11.30
2022-09-21T01:04:18.835Z,11.22
2022-09-21T01:07:27.849Z,11.16
2022-09-21T01:10:33.908Z,11.07
2022-09-21T01:13:52.919Z,10.96
2022-09-21T01:17:25.097Z,10.86
2022-09-21T01:20:40.650Z,10.76
2022-09-21T01:23:56.590Z,10.65
2022-09-21T01:27:22.038Z,10.55
2022-09-21T01:30:30.090Z,10.47
2022-09-21T01:33:41.765Z,10.39
2022-09-21T01:36:47.309Z,10.33
2022-09-21T01:39:53.420Z,10.25
2022-09-21T01:42:59.338Z,10.18
2022-09-21T01:46:08.573Z,10.13
2022-09-21T01:49:18.695Z,10.06
2022-09-21T01:52:41.052Z,9.99
2022-09-21T01:55:53.156Z,9.92
2022-09-21T01:59:15.281Z,9.88
2022-09-21T02:02:38.488Z,9.80
2022-09-21T02:05:44.510Z,9.74
2022-09-21T02:08:52.048Z,9.67
2022-09-21T02:11:57.920Z,9.61
2022-09-21T02:15:03.806Z,9.56
2022-09-21T02:18:22.948Z,9.49
2022-09-21T02:21:48.100Z,9.43
2022-09-21T02:25:10.330Z,9.36
2022-09-21T02:28:33.409Z,9.28
2022-09-21T02:32:05.241Z,9.22
2022-09-21T02:35:36.833Z,9.16
2022-09-21T02:38:55.046Z,9.09
2022-09-21T02:42:26.845Z,9.04
2022-09-21T02:45:48.177Z,8.99
2022-09-21T02:49:04.554Z,8.97
2022-09-21T02:52:16.440Z,8.92
2022-09-21T02:55:22.905Z,8.87
2022-09-21T02:58:29.649Z,8.81
2022-09-21T03:01:36.396Z,8.74
2022-09-21T03:04:42.253Z,8.66
2022-09-21T03:07:47.424Z,8.60
2022-09-21T03:10:53.966Z,8.55
2022-09-21T03:13:59.774Z,8.50
2022-09-21T03:17:07.464Z,8.45
2022-09-21T03:20:16.068Z,8.41
2022-09-21T03:23:20.814Z,8.37
2022-09-21T03:26:30.135Z,8.33
2022-09-21T03:29:35.229Z,8.27
2022-09-21T03:32:41.601Z,8.18
2022-09-21T03:35:46.966Z,8.14
2022-09-21T03:38:53.729Z,8.11
2022-09-21T03:41:58.960Z,8.08
2022-09-21T03:45:05.919Z,8.04
2022-09-21T03:48:13.754Z,8.01
2022-09-21T03:51:19.806Z,7.99
2022-09-21T03:54:25.755Z,8.00
2022-09-21T03:57:34.099Z,7.99
2022-09-21T04:00:40.165Z,7.98
2022-09-21T04:03:46.289Z,7.96
2022-09-21T04:06:53.980Z,7.96
2022-09-21T04:10:00.815Z,7.99
2022-09-21T04:13:07.893Z,8.02
2022-09-21T04:16:14.388Z,8.04
2022-09-21T04:19:20.979Z,8.04
2022-09-21T04:22:28.135Z,8.05
2022-09-21T04:25:32.716Z,8.09
2022-09-21T04:28:40.114Z,8.16
2022-09-21T04:31:47.455Z,8.24
2022-09-21T04:34:54.098Z,8.29
2022-09-21T04:38:01.651Z,8.34
2022-09-21T04:41:11.733Z,8.41
2022-09-21T04:44:18.285Z,8.53
2022-09-21T04:47:31.888Z,8.69
2022-09-21T04:50:38.166Z,8.84
2022-09-21T04:53:45.353Z,8.99
2022-09-21T04:56:51.037Z,9.13
2022-09-21T04:59:59.192Z,9.22
2022-09-21T05:03:05.797Z,9.31
2022-09-21T05:06:13.536Z,9.40
2022-09-21T05:09:36.342Z,9.47
2022-09-21T05:12:42.419Z,9.55
2022-09-21T05:15:47.699Z,9.67
2022-09-21T05:18:52.562Z,9.76
2022-09-21T05:21:59.006Z,9.88
2022-09-21T05:25:04.355Z,10.03
2022-09-21T05:28:09.850Z,10.17
2022-09-21T05:32:04.306Z,10.29
2022-09-21T05:35:54.414Z,10.41
2022-09-21T05:39:02.982Z,10.55
2022-09-21T05:42:08.552Z,10.71
2022-09-21T05:45:15.642Z,10.86
2022-09-21T05:48:39.748Z,10.98
2022-09-21T05:51:57.378Z,11.10
2022-09-21T05:55:33.219Z,11.17
2022-09-21T05:58:52.948Z,11.26
2022-09-21T06:02:25.561Z,11.34
2022-09-21T06:05:32.864Z,11.44
2022-09-21T06:08:39.805Z,11.50
2022-09-21T06:11:47.133Z,11.56
2022-09-21T06:14:53.899Z,11.61
2022-09-21T06:17:59.676Z,11.70
2022-09-21T06:21:05.358Z,11.81
2022-09-21T06:24:13.105Z,11.91
2022-09-21T06:27:17.919Z,12.00
2022-09-21T06:30:26.549Z,12.10
2022-09-21T06:33:31.941Z,12.18
2022-09-21T06:36:41.568Z,12.24
2022-09-21T06:39:52.101Z,12.29
2022-09-21T06:43:03.970Z,12.34
2022-09-21T06:46:15.169Z,12.37
2022-09-21T06:49:21.363Z,12.39
2022-09-21T06:52:26.429Z,12.40
2022-09-21T06:55:32.824Z,12.43
2022-09-21T06:58:51.059Z,12.45
2022-09-21T07:02:05.530Z,12.49
2022-09-21T07:05:11.647Z,12.51
2022-09-21T07:11:30.865Z,12.66
2022-09-21T07:14:43.242Z,12.83
2022-09-21T07:18:04.804Z,12.91
2022-09-21T07:21:01.701Z,12.94
2022-09-21T07:24:16.269Z,12.92
2022-09-21T07:27:24.392Z,12.88
2022-09-21T07:30:32.757Z,12.86
2022-09-21T07:33:41.044Z,12.88
2022-09-21T07:36:49.551Z,12.89
2022-09-21T07:39:55.415Z,12.90
2022-09-21T07:43:17.585Z,12.96
2022-09-21T07:46:42.754Z,13.01
2022-09-21T07:49:50.185Z,13.04
2022-09-21T07:52:57.179Z,13.09
2022-09-21T07:56:03.160Z,13.11
2022-09-21T07:59:13.698Z,13.10
2022-09-21T08:02:20.334Z,13.16
2022-09-21T08:05:28.653Z,13.28
2022-09-21T08:08:36.352Z,13.37
2022-09-21T08:11:44.891Z,13.44
2022-09-21T08:14:50.517Z,13.49
2022-09-21T08:17:59.198Z,13.52
2022-09-21T08:21:15.635Z,13.52
2022-09-21T08:24:25.040Z,13.60
2022-09-21T08:27:35.484Z,13.65
2022-09-21T08:30:42.169Z,13.73
2022-09-21T08:33:48.567Z,13.81
2022-09-21T08:36:55.872Z,13.87
2022-09-21T08:40:02.465Z,13.92
2022-09-21T08:43:17.753Z,14.00
2022-09-21T08:46:31.720Z,14.10
2022-09-21T08:49:39.926Z,14.16
2022-09-21T08:52:47.966Z,14.22
2022-09-21T08:55:54.372Z,14.34
2022-09-21T08:59:01.963Z,14.40
2022-09-21T09:02:34.383Z,14.41
2022-09-21T09:06:26.665Z,14.39
2022-09-21T09:10:03.719Z,14.37
2022-09-21T09:13:42.289Z,14.35
2022-09-21T09:17:06.779Z,14.30
2022-09-21T09:20:39.308Z,14.24
2022-09-21T09:23:56.848Z,14.25
2022-09-21T09:27:10.287Z,14.29
2022-09-21T09:30:33.424Z,14.34
2022-09-21T09:33:46.174Z,14.39
2022-09-21T09:37:00.392Z,14.41
2022-09-21T09:40:06.028Z,14.42
2022-09-21T09:43:20.142Z,14.39
2022-09-21T09:46:37.717Z,14.35
2022-09-21T09:50:17.715Z,14.33
2022-09-21T09:53:33.981Z,14.30
2022-09-21T09:56:41.071Z,14.25
2022-09-21T09:59:59.014Z,14.25
2022-09-21T10:03:09.371Z,14.29
2022-09-21T10:06:14.820Z,14.33
2022-09-21T10:09:46.767Z,14.32
2022-09-21T10:16:41.419Z,14.47
2022-09-21T10:19:47.907Z,14.53
2022-09-21T10:22:56.563Z,14.56
2022-09-21T10:26:15.640Z,14.56
2022-09-21T10:29:39.683Z,14.55
2022-09-21T10:33:12.831Z,14.47
2022-09-21T10:36:41.682Z,14.42
2022-09-21T10:43:35.919Z,14.65
2022-09-21T10:46:53.578Z,14.64
2022-09-21T10:53:53.853Z,14.81
2022-09-21T10:57:07.454Z,14.80
2022-09-21T11:00:12.719Z,14.88
2022-09-21T11:03:54.671Z,14.97
2022-09-21T11:07:03.225Z,15.03
2022-09-21T11:10:34.130Z,15.12
2022-09-21T11:14:11.500Z,15.13
2022-09-21T11:17:28.442Z,15.12
2022-09-21T11:21:06.791Z,15.10
2022-09-21T11:24:33.037Z,15.09
2022-09-21T11:27:47.815Z,15.04
2022-09-21T11:30:58.508Z,14.97
2022-09-21T11:34:26.031Z,14.87
2022-09-21T11:37:53.630Z,14.83
2022-09-21T11:41:17.535Z,14.81
2022-09-21T11:44:58.294Z,14.81
2022-09-21T11:48:41.788Z,14.82
2022-09-21T11:52:18.759Z,14.81
2022-09-21T11:55:45.166Z,14.78
2022-09-21T11:59:20.092Z,14.76
2022-09-21T12:02:58.541Z,14.76
2022-09-21T12:06:16.481Z,14.77
2022-09-21T12:09:46.354Z,14.84
2022-09-21T12:13:04.697Z,14.93
2022-09-21T12:16:23.258Z,14.92
2022-09-21T12:19:40.661Z,14.85
2022-09-21T12:22:56.096Z,14.79
2022-09-21T12:26:05.460Z,14.71
2022-09-21T12:29:20.467Z,14.64
2022-09-21T12:32:36.907Z,14.60
2022-09-21T12:36:12.994Z,14.54
2022-09-21T12:39:29.934Z,14.53
2022-09-21T12:42:40.747Z,14.55
2022-09-21T12:49:51.846Z,14.66
2022-09-21T12:53:06.763Z,14.61
2022-09-21T12:56:23.576Z,14.63
2022-09-21T12:59:59.293Z,14.63
2022-09-21T13:03:20.409Z,14.67
2022-09-21T13:07:19.356Z,14.69
2022-09-21T13:11:02.194Z,14.69
2022-09-21T13:14:18.422Z,14.73
2022-09-21T13:17:35.747Z,14.77
2022-09-21T13:20:53.661Z,14.83
2022-09-21T13:24:15.640Z,14.91
2022-09-21T13:27:25.762Z,14.95
2022-09-21T13:30:48.334Z,15.01
2022-09-21T13:33:55.020Z,15.08
2022-09-21T13:37:02.834Z,15.14
2022-09-21T13:40:19.685Z,15.17
2022-09-21T13:43:32.156Z,15.22
2022-09-21T13:46:55.733Z,15.23
2022-09-21T13:50:04.814Z,15.25
2022-09-21T13:53:23.543Z,15.21
2022-09-21T13:56:40.440Z,15.19
2022-09-21T13:59:47.946Z,15.11
2022-09-21T14:03:01.116Z,15.04
2022-09-21T14:06:38.976Z,14.98
2022-09-21T14:09:48.709Z,14.92
2022-09-21T14:12:57.558Z,14.79
2022-09-21T14:16:04.295Z,14.72
2022-09-21T14:19:10.147Z,14.66
2022-09-21T14:22:27.160Z,14.63
2022-09-21T14:25:43.462Z,14.59
2022-09-21T14:28:54.390Z,14.52
2022-09-21T14:32:00.183Z,14.49
2022-09-21T14:35:08.862Z,14.44
2022-09-21T14:38:21.843Z,14.41
2022-09-21T14:41:30.723Z,14.35
2022-09-21T14:44:39.638Z,14.31
2022-09-21T14:48:10.332Z,14.20
2022-09-21T14:51:27.094Z,14.10
2022-09-21T14:54:59.945Z,14.04
2022-09-21T14:58:35.195Z,14.00
2022-09-21T15:01:53.534Z,13.96
2022-09-21T15:05:23.045Z,13.90
2022-09-21T15:09:20.456Z,13.87
2022-09-21T15:12:34.893Z,13.87
2022-09-21T15:16:16.202Z,13.87
2022-09-21T15:19:40.908Z,13.88
2022-09-21T15:22:48.778Z,13.87
2022-09-21T15:25:55.346Z,13.86
2022-09-21T15:29:10.955Z,13.81
2022-09-21T15:32:12.454Z,13.76
2022-09-21T15:35:22.492Z,13.72
2022-09-21T15:38:48.075Z,13.69
2022-09-21T15:41:59.888Z,13.65
2022-09-21T15:45:26.663Z,13.60
2022-09-21T15:48:31.658Z,13.56
2022-09-21T15:51:47.334Z,13.47
2022-09-21T15:54:59.743Z,13.35
2022-09-21T15:58:07.312Z,13.17
2022-09-21T16:01:13.534Z,12.99
2022-09-21T16:04:22.343Z,12.81
2022-09-21T16:07:46.197Z,12.68
2022-09-21T16:10:55.936Z,12.51
2022-09-21T16:14:19.621Z,12.30
2022-09-21T16:17:34.271Z,12.15
2022-09-21T16:20:43.937Z,12.01
2022-09-21T16:23:51.074Z,11.90
2022-09-21T16:26:57.211Z,11.78
2022-09-21T16:30:03.331Z,11.69
2022-09-21T16:33:11.278Z,11.60
2022-09-21T16:36:19.053Z,11.49
2022-09-21T16:39:25.230Z,11.38
2022-09-21T16:42:30.985Z,11.27
2022-09-21T16:45:43.791Z,11.16
2022-09-21T16:48:50.987Z,11.08
2022-09-21T16:51:57.711Z,11.01
2022-09-21T16:55:05.636Z,10.95
2022-09-21T16:58:12.570Z,10.89
2022-09-21T17:01:19.795Z,10.84
2022-09-21T17:04:27.414Z,10.77
2022-09-21T17:07:34.859Z,10.71
2022-09-21T17:10:49.533Z,10.63
2022-09-21T17:13:55.756Z,10.58
2022-09-21T17:17:10.676Z,10.55
2022-09-21T17:20:19.065Z,10.54
2022-09-21T17:23:26.404Z,10.51
2022-09-21T17:26:33.072Z,10.50
2022-09-21T17:29:44.138Z,10.49
2022-09-21T17:32:50.202Z,10.46
2022-09-21T17:36:01.691Z,10.47
2022-09-21T17:39:07.888Z,10.48
2022-09-21T17:42:33.078Z,10.49
2022-09-21T17:45:46.999Z,10.50
2022-09-21T17:48:52.299Z,10.45
2022-09-21T17:52:15.850Z,10.38
2022-09-21T17:55:23.222Z,10.32
2022-09-21T17:59:01.006Z,10.28
2022-09-21T18:02:10.849Z,10.23
2022-09-21T18:05:18.715Z,10.19
2022-09-21T18:08:24.259Z,10.16
2022-09-21T18:11:40.183Z,10.15
2022-09-21T18:15:01.692Z,10.16
2022-09-21T18:18:41.202Z,10.18
2022-09-21T18:21:49.004Z,10.23
2022-09-21T18:24:55.321Z,10.27
2022-09-21T18:28:02.539Z,10.33
2022-09-21T18:31:25.105Z,10.37
2022-09-21T18:34:52.294Z,10.40
2022-09-21T18:38:25.351Z,10.44
2022-09-21T18:41:40.962Z,10.44
2022-09-21T18:44:59.307Z,10.46
2022-09-21T18:48:22.094Z,10.47
2022-09-21T18:51:59.413Z,10.49
2022-09-21T18:55:07.753Z,10.49
2022-09-21T18:58:14.723Z,10.51
2022-09-21T19:01:23.779Z,10.53
2022-09-21T19:04:33.781Z,10.54
2022-09-21T19:07:50.473Z,10.54
2022-09-21T19:11:04.986Z,10.53
2022-09-21T19:14:31.402Z,10.54
2022-09-21T19:18:08.186Z,10.56
2022-09-21T19:21:28.935Z,10.55
2022-09-21T19:24:49.925Z,10.57
2022-09-21T19:28:02.998Z,10.58
2022-09-21T19:31:10.711Z,10.59
2022-09-21T19:34:33.214Z,10.60
2022-09-21T19:37:40.034Z,10.61
2022-09-21T19:40:47.872Z,10.61
2022-09-21T19:44:07.604Z,10.64
2022-09-21T19:47:18.097Z,10.65
2022-09-21T19:50:54.192Z,10.68
2022-09-21T19:54:19.320Z,10.70
2022-09-21T19:57:47.957Z,10.70
2022-09-21T20:00:53.890Z,10.71
2022-09-21T20:04:01.075Z,10.73
2022-09-21T20:07:12.109Z,10.73
2022-09-21T20:10:39.151Z,10.74
2022-09-21T20:14:08.226Z,10.76
2022-09-21T20:17:19.103Z,10.78
2022-09-21T20:20:40.535Z,10.79
2022-09-21T20:23:52.127Z,10.80
2022-09-21T20:26:58.522Z,10.82
2022-09-21T20:30:05.857Z,10.82
2022-09-21T20:33:21.369Z,10.84
2022-09-21T20:36:30.884Z,10.85
2022-09-21T20:39:36.647Z,10.85
2022-09-21T20:42:44.511Z,10.83
2022-09-21T20:45:54.020Z,10.82
2022-09-21T20:49:02.777Z,10.82
2022-09-21T20:52:08.943Z,10.80
2022-09-21T20:55:15.794Z,10.82
2022-09-21T20:58:21.471Z,10.81
2022-09-21T21:01:27.900Z,10.82
2022-09-21T21:04:34.211Z,10.82
2022-09-21T21:07:40.163Z,10.82
2022-09-21T21:10:46.446Z,10.82
2022-09-21T21:13:52.311Z,10.81
2022-09-21T21:16:59.938Z,10.82
2022-09-21T21:20:05.590Z,10.82
2022-09-21T21:23:11.282Z,10.83
2022-09-21T21:26:33.345Z,10.80
2022-09-21T21:29:28.912Z,10.80
2022-09-21T21:32:38.472Z,10.78
2022-09-21T21:35:44.302Z,10.74
2022-09-21T21:38:51.879Z,10.72
2022-09-21T21:41:57.552Z,10.67
2022-09-21T21:45:04.413Z,10.62
2022-09-21T21:48:11.184Z,10.55
2022-09-21T21:51:19.995Z,10.49
2022-09-21T21:54:26.613Z,10.43
2022-09-21T21:57:32.076Z,10.38
2022-09-21T22:00:38.741Z,10.33
2022-09-21T22:03:46.138Z,10.27
2022-09-21T22:06:52.885Z,10.20
2022-09-21T22:10:00.042Z,10.13
2022-09-21T22:13:07.256Z,10.08
2022-09-21T22:16:24.715Z,10.02
2022-09-21T22:19:32.143Z,9.95
2022-09-21T22:22:38.560Z,9.91
2022-09-21T22:25:46.700Z,9.86
2022-09-21T22:28:54.716Z,9.82
2022-09-21T22:32:04.128Z,9.76
2022-09-21T22:35:10.359Z,9.72
2022-09-21T22:38:19.206Z,9.67
2022-09-21T22:41:28.257Z,9.61
2022-09-21T22:44:34.431Z,9.56
2022-09-21T22:47:41.189Z,9.50
2022-09-21T22:50:46.484Z,9.42
2022-09-21T22:53:51.741Z,9.35
2022-09-21T22:56:58.060Z,9.31
2022-09-21T23:00:04.583Z,9.26
2022-09-21T23:03:10.533Z,9.22
2022-09-21T23:06:15.900Z,9.17
2022-09-21T23:09:25.596Z,9.12
2022-09-21T23:12:31.517Z,9.09
2022-09-21T23:15:37.409Z,9.05
2022-09-21T23:18:43.740Z,8.99
2022-09-21T23:21:49.053Z,8.95
2022-09-21T23:24:55.689Z,8.89
2022-09-21T23:28:02.789Z,8.85
2022-09-21T23:31:10.434Z,8.80
2022-09-21T23:34:20.160Z,8.75
2022-09-21T23:37:26.023Z,8.72
2022-09-21T23:40:33.581Z,8.69
2022-09-21T23:43:39.290Z,8.64
2022-09-21T23:46:48.839Z,8.59
2022-09-21T23:49:56.017Z,8.52
2022-09-21T23:53:01.638Z,8.43
2022-09-21T23:56:07.852Z,8.37
2022-09-21T23:59:14.900Z,8.33
